sensor_id;sensor_type;location;lat;lon;timestamp;P1;durP1;ratioP1;P2;durP2;ratioP2
39982;SDS011;25670;44.782;10.356;2022-08-19T00:01:38;49.90;;;37.15;;
39982;SDS011;25670;44.782;10.356;2022-08-19T00:04:10;52.33;;;38.25;;
39982;SDS011;25670;44.782;10.356;2022-08-19T00:09:05;59.97;;;38.58;;
39982;SDS011;25670;44.782;10.356;2022-08-19T00:11:33;56.47;;;39.95;;
39982;SDS011;25670;44.782;10.356;2022-08-19T00:14:01;55.92;;;39.42;;
39982;SDS011;25670;44.782;10.356;2022-08-19T00:16:27;55.03;;;38.53;;
39982;SDS011;25670;44.782;10.356;2022-08-19T00:18:54;61.15;;;40.88;;
39982;SDS011;25670;44.782;10.356;2022-08-19T00:21:21;57.38;;;38.90;;
39982;SDS011;25670;44.782;10.356;2022-08-19T00:23:52;52.53;;;37.10;;
39982;SDS011;25670;44.782;10.356;2022-08-19T00:26:19;57.95;;;37.45;;
39982;SDS011;25670;44.782;10.356;2022-08-19T00:28:46;61.20;;;40.53;;
39982;SDS011;25670;44.782;10.356;2022-08-19T00:31:12;56.03;;;38.97;;
39982;SDS011;25670;44.782;10.356;2022-08-19T00:33:39;57.95;;;39.58;;
39982;SDS011;25670;44.782;10.356;2022-08-19T00:36:06;54.20;;;37.10;;
39982;SDS011;25670;44.782;10.356;2022-08-19T00:38:34;53.50;;;35.78;;
39982;SDS011;25670;44.782;10.356;2022-08-19T00:41:01;54.08;;;36.80;;
39982;SDS011;25670;44.782;10.356;2022-08-19T00:43:28;58.70;;;37.85;;
39982;SDS011;25670;44.782;10.356;2022-08-19T00:45:54;51.00;;;36.70;;
39982;SDS011;25670;44.782;10.356;2022-08-19T00:48:41;61.60;;;36.67;;
39982;SDS011;25670;44.782;10.356;2022-08-19T00:51:07;52.25;;;36.00;;
39982;SDS011;25670;44.782;10.356;2022-08-19T00:53:34;59.72;;;37.13;;
39982;SDS011;25670;44.782;10.356;2022-08-19T00:56:00;54.67;;;34.78;;
39982;SDS011;25670;44.782;10.356;2022-08-19T00:58:32;57.00;;;36.83;;
39982;SDS011;25670;44.782;10.356;2022-08-19T01:01:00;58.80;;;37.35;;
39982;SDS011;25670;44.782;10.356;2022-08-19T01:03:28;61.40;;;36.20;;
39982;SDS011;25670;44.782;10.356;2022-08-19T01:05:54;54.42;;;35.63;;
39982;SDS011;25670;44.782;10.356;2022-08-19T01:08:21;55.90;;;34.85;;
39982;SDS011;25670;44.782;10.356;2022-08-19T01:10:55;53.55;;;33.05;;
39982;SDS011;25670;44.782;10.356;2022-08-19T01:13:24;46.95;;;34.28;;
39982;SDS011;25670;44.782;10.356;2022-08-19T01:15:58;52.88;;;34.40;;
39982;SDS011;25670;44.782;10.356;2022-08-19T01:18:35;48.70;;;33.78;;
39982;SDS011;25670;44.782;10.356;2022-08-19T01:21:09;56.85;;;35.95;;
39982;SDS011;25670;44.782;10.356;2022-08-19T01:23:42;46.20;;;33.08;;
39982;SDS011;25670;44.782;10.356;2022-08-19T01:26:13;57.95;;;34.70;;
39982;SDS011;25670;44.782;10.356;2022-08-19T01:28:43;60.33;;;35.53;;
39982;SDS011;25670;44.782;10.356;2022-08-19T01:31:13;57.10;;;35.78;;
39982;SDS011;25670;44.782;10.356;2022-08-19T01:33:42;60.27;;;37.63;;
39982;SDS011;25670;44.782;10.356;2022-08-19T01:36:12;59.05;;;37.80;;
39982;SDS011;25670;44.782;10.356;2022-08-19T01:38:47;63.33;;;40.53;;
39982;SDS011;25670;44.782;10.356;2022-08-19T01:41:14;57.30;;;39.35;;
39982;SDS011;25670;44.782;10.356;2022-08-19T01:46:20;56.53;;;38.10;;
39982;SDS011;25670;44.782;10.356;2022-08-19T01:48:46;54.67;;;36.63;;
39982;SDS011;25670;44.782;10.356;2022-08-19T01:51:13;51.58;;;34.95;;
39982;SDS011;25670;44.782;10.356;2022-08-19T01:53:40;62.72;;;38.08;;
39982;SDS011;25670;44.782;10.356;2022-08-19T01:56:06;49.78;;;34.33;;
39982;SDS011;25670;44.782;10.356;2022-08-19T01:58:38;51.05;;;35.92;;
39982;SDS011;25670;44.782;10.356;2022-08-19T02:01:07;48.53;;;35.70;;
39982;SDS011;25670;44.782;10.356;2022-08-19T02:03:34;46.03;;;35.17;;
39982;SDS011;25670;44.782;10.356;2022-08-19T02:06:00;56.75;;;34.85;;
39982;SDS011;25670;44.782;10.356;2022-08-19T02:08:31;51.22;;;35.00;;
39982;SDS011;25670;44.782;10.356;2022-08-19T02:11:00;55.65;;;34.92;;
39982;SDS011;25670;44.782;10.356;2022-08-19T02:13:26;48.67;;;34.20;;
39982;SDS011;25670;44.782;10.356;2022-08-19T02:15:53;51.05;;;32.45;;
39982;SDS011;25670;44.782;10.356;2022-08-19T02:18:19;43.58;;;31.65;;
39982;SDS011;25670;44.782;10.356;2022-08-19T02:20:45;48.42;;;33.08;;
39982;SDS011;25670;44.782;10.356;2022-08-19T02:23:13;38.13;;;29.88;;
39982;SDS011;25670;44.782;10.356;2022-08-19T02:25:41;46.80;;;31.80;;
39982;SDS011;25670;44.782;10.356;2022-08-19T02:28:10;44.38;;;29.98;;
39982;SDS011;25670;44.782;10.356;2022-08-19T02:30:37;41.30;;;26.77;;
39982;SDS011;25670;44.782;10.356;2022-08-19T02:33:04;44.03;;;23.23;;
39982;SDS011;25670;44.782;10.356;2022-08-19T02:35:30;39.42;;;19.70;;
39982;SDS011;25670;44.782;10.356;2022-08-19T02:37:57;45.50;;;13.88;;
39982;SDS011;25670;44.782;10.356;2022-08-19T02:40:47;7.53;;;6.72;;
39982;SDS011;25670;44.782;10.356;2022-08-19T02:43:15;9.15;;;8.30;;
39982;SDS011;25670;44.782;10.356;2022-08-19T02:45:42;12.45;;;10.20;;
39982;SDS011;25670;44.782;10.356;2022-08-19T02:48:08;10.20;;;9.23;;
39982;SDS011;25670;44.782;10.356;2022-08-19T02:50:38;13.32;;;5.97;;
39982;SDS011;25670;44.782;10.356;2022-08-19T02:53:05;7.50;;;6.23;;
39982;SDS011;25670;44.782;10.356;2022-08-19T02:55:33;8.90;;;7.22;;
39982;SDS011;25670;44.782;10.356;2022-08-19T02:58:00;5.50;;;4.70;;
39982;SDS011;25670;44.782;10.356;2022-08-19T03:00:26;10.68;;;5.50;;
39982;SDS011;25670;44.782;10.356;2022-08-19T03:02:53;7.78;;;7.15;;
39982;SDS011;25670;44.782;10.356;2022-08-19T03:05:19;9.55;;;8.68;;
39982;SDS011;25670;44.782;10.356;2022-08-19T03:07:46;7.97;;;6.85;;
39982;SDS011;25670;44.782;10.356;2022-08-19T03:10:12;6.45;;;5.13;;
39982;SDS011;25670;44.782;10.356;2022-08-19T03:12:38;2.55;;;2.35;;
39982;SDS011;25670;44.782;10.356;2022-08-19T03:15:05;2.22;;;2.13;;
39982;SDS011;25670;44.782;10.356;2022-08-19T03:17:51;6.85;;;3.30;;
39982;SDS011;25670;44.782;10.356;2022-08-19T03:27:19;2.17;;;1.80;;
39982;SDS011;25670;44.782;10.356;2022-08-19T03:33:37;4.07;;;2.40;;
39982;SDS011;25670;44.782;10.356;2022-08-19T03:36:08;3.73;;;1.93;;
39982;SDS011;25670;44.782;10.356;2022-08-19T03:38:42;5.25;;;2.38;;
39982;SDS011;25670;44.782;10.356;2022-08-19T03:41:12;4.20;;;2.30;;
39982;SDS011;25670;44.782;10.356;2022-08-19T03:43:41;5.38;;;2.10;;
39982;SDS011;25670;44.782;10.356;2022-08-19T03:46:09;5.45;;;2.03;;
39982;SDS011;25670;44.782;10.356;2022-08-19T03:48:37;4.25;;;1.50;;
39982;SDS011;25670;44.782;10.356;2022-08-19T03:51:05;2.25;;;1.45;;
39982;SDS011;25670;44.782;10.356;2022-08-19T03:53:32;3.50;;;1.10;;
39982;SDS011;25670;44.782;10.356;2022-08-19T03:56:00;4.03;;;1.30;;
39982;SDS011;25670;44.782;10.356;2022-08-19T03:58:30;5.13;;;1.45;;
39982;SDS011;25670;44.782;10.356;2022-08-19T04:00:56;2.50;;;1.13;;
39982;SDS011;25670;44.782;10.356;2022-08-19T04:03:23;8.75;;;1.75;;
39982;SDS011;25670;44.782;10.356;2022-08-19T04:05:50;1.52;;;1.30;;
39982;SDS011;25670;44.782;10.356;2022-08-19T04:08:16;3.13;;;1.70;;
39982;SDS011;25670;44.782;10.356;2022-08-19T04:10:46;2.72;;;1.42;;
39982;SDS011;25670;44.782;10.356;2022-08-19T04:13:14;4.05;;;1.73;;
39982;SDS011;25670;44.782;10.356;2022-08-19T04:18:31;2.08;;;1.23;;
39982;SDS011;25670;44.782;10.356;2022-08-19T04:20:58;2.78;;;2.33;;
39982;SDS011;25670;44.782;10.356;2022-08-19T04:23:25;4.32;;;1.67;;
39982;SDS011;25670;44.782;10.356;2022-08-19T04:25:53;4.13;;;1.45;;
39982;SDS011;25670;44.782;10.356;2022-08-19T04:28:20;6.00;;;1.30;;
39982;SDS011;25670;44.782;10.356;2022-08-19T04:30:48;2.22;;;1.40;;
39982;SDS011;25670;44.782;10.356;2022-08-19T04:33:17;2.05;;;1.60;;
39982;SDS011;25670;44.782;10.356;2022-08-19T04:35:46;2.53;;;1.35;;
39982;SDS011;25670;44.782;10.356;2022-08-19T04:38:14;8.07;;;1.75;;
39982;SDS011;25670;44.782;10.356;2022-08-19T04:40:43;1.45;;;1.33;;
39982;SDS011;25670;44.782;10.356;2022-08-19T04:43:28;1.80;;;1.00;;
39982;SDS011;25670;44.782;10.356;2022-08-19T04:45:55;2.78;;;1.27;;
39982;SDS011;25670;44.782;10.356;2022-08-19T04:48:22;9.38;;;8.48;;
39982;SDS011;25670;44.782;10.356;2022-08-19T04:50:55;2.47;;;2.03;;
39982;SDS011;25670;44.782;10.356;2022-08-19T04:53:29;2.72;;;1.60;;
39982;SDS011;25670;44.782;10.356;2022-08-19T04:55:58;2.83;;;1.65;;
39982;SDS011;25670;44.782;10.356;2022-08-19T04:58:27;1.77;;;1.40;;
39982;SDS011;25670;44.782;10.356;2022-08-19T05:00:53;1.58;;;0.75;;
39982;SDS011;25670;44.782;10.356;2022-08-19T05:03:20;0.82;;;0.80;;
39982;SDS011;25670;44.782;10.356;2022-08-19T05:05:47;4.97;;;1.05;;
39982;SDS011;25670;44.782;10.356;2022-08-19T05:08:16;3.63;;;1.40;;
39982;SDS011;25670;44.782;10.356;2022-08-19T05:10:46;7.07;;;1.60;;
39982;SDS011;25670;44.782;10.356;2022-08-19T05:13:14;1.88;;;1.15;;
39982;SDS011;25670;44.782;10.356;2022-08-19T05:15:42;3.00;;;1.30;;
39982;SDS011;25670;44.782;10.356;2022-08-19T05:18:09;3.03;;;1.20;;
39982;SDS011;25670;44.782;10.356;2022-08-19T05:20:54;2.92;;;1.00;;
39982;SDS011;25670;44.782;10.356;2022-08-19T05:23:40;1.98;;;1.27;;
39982;SDS011;25670;44.782;10.356;2022-08-19T05:26:06;1.40;;;1.20;;
39982;SDS011;25670;44.782;10.356;2022-08-19T05:31:57;1.48;;;0.77;;
39982;SDS011;25670;44.782;10.356;2022-08-19T05:34:25;2.00;;;1.13;;
39982;SDS011;25670;44.782;10.356;2022-08-19T05:36:53;1.23;;;0.90;;
39982;SDS011;25670;44.782;10.356;2022-08-19T05:39:25;2.45;;;0.65;;
39982;SDS011;25670;44.782;10.356;2022-08-19T05:41:57;3.60;;;1.00;;
39982;SDS011;25670;44.782;10.356;2022-08-19T05:44:30;1.05;;;0.75;;
39982;SDS011;25670;44.782;10.356;2022-08-19T05:46:59;1.00;;;0.70;;
39982;SDS011;25670;44.782;10.356;2022-08-19T05:49:27;3.08;;;1.15;;
39982;SDS011;25670;44.782;10.356;2022-08-19T05:51:54;2.78;;;1.13;;
39982;SDS011;25670;44.782;10.356;2022-08-19T05:54:21;0.65;;;0.63;;
39982;SDS011;25670;44.782;10.356;2022-08-19T05:56:49;0.60;;;0.52;;
39982;SDS011;25670;44.782;10.356;2022-08-19T05:59:17;1.27;;;0.68;;
39982;SDS011;25670;44.782;10.356;2022-08-19T06:01:48;1.50;;;0.98;;
39982;SDS011;25670;44.782;10.356;2022-08-19T06:04:16;1.25;;;0.70;;
39982;SDS011;25670;44.782;10.356;2022-08-19T06:06:45;2.63;;;0.77;;
39982;SDS011;25670;44.782;10.356;2022-08-19T06:09:13;1.80;;;0.77;;
39982;SDS011;25670;44.782;10.356;2022-08-19T06:11:41;1.67;;;0.60;;
39982;SDS011;25670;44.782;10.356;2022-08-19T06:14:10;1.63;;;0.50;;
39982;SDS011;25670;44.782;10.356;2022-08-19T06:16:44;2.45;;;0.60;;
39982;SDS011;25670;44.782;10.356;2022-08-19T06:19:12;1.65;;;0.60;;
39982;SDS011;25670;44.782;10.356;2022-08-19T06:21:41;2.08;;;0.80;;
39982;SDS011;25670;44.782;10.356;2022-08-19T06:24:10;3.65;;;0.80;;
39982;SDS011;25670;44.782;10.356;2022-08-19T06:26:39;4.20;;;0.68;;
39982;SDS011;25670;44.782;10.356;2022-08-19T06:29:08;1.42;;;0.70;;
39982;SDS011;25670;44.782;10.356;2022-08-19T06:31:41;0.98;;;0.57;;
39982;SDS011;25670;44.782;10.356;2022-08-19T06:34:37;1.55;;;0.68;;
39982;SDS011;25670;44.782;10.356;2022-08-19T06:37:05;1.13;;;0.75;;
39982;SDS011;25670;44.782;10.356;2022-08-19T06:39:33;0.75;;;0.75;;
39982;SDS011;25670;44.782;10.356;2022-08-19T06:42:02;1.27;;;0.63;;
39982;SDS011;25670;44.782;10.356;2022-08-19T06:44:34;0.82;;;0.68;;
39982;SDS011;25670;44.782;10.356;2022-08-19T06:47:06;0.75;;;0.73;;
39982;SDS011;25670;44.782;10.356;2022-08-19T06:49:34;3.50;;;1.20;;
39982;SDS011;25670;44.782;10.356;2022-08-19T06:52:02;1.42;;;0.60;;
39982;SDS011;25670;44.782;10.356;2022-08-19T06:54:29;2.05;;;0.70;;
39982;SDS011;25670;44.782;10.356;2022-08-19T06:56:56;0.88;;;0.60;;
39982;SDS011;25670;44.782;10.356;2022-08-19T06:59:24;2.65;;;0.65;;
39982;SDS011;25670;44.782;10.356;2022-08-19T07:01:55;1.15;;;1.00;;
39982;SDS011;25670;44.782;10.356;2022-08-19T07:04:25;0.63;;;0.60;;
39982;SDS011;25670;44.782;10.356;2022-08-19T07:07:13;1.35;;;0.68;;
39982;SDS011;25670;44.782;10.356;2022-08-19T07:09:42;2.20;;;0.77;;
39982;SDS011;25670;44.782;10.356;2022-08-19T07:12:10;3.40;;;0.85;;
39982;SDS011;25670;44.782;10.356;2022-08-19T07:18:14;1.90;;;0.82;;
39982;SDS011;25670;44.782;10.356;2022-08-19T07:24:40;1.80;;;0.73;;
39982;SDS011;25670;44.782;10.356;2022-08-19T07:27:13;9.95;;;0.57;;
39982;SDS011;25670;44.782;10.356;2022-08-19T07:30:00;1.20;;;0.50;;
39982;SDS011;25670;44.782;10.356;2022-08-19T07:35:27;0.98;;;0.50;;
39982;SDS011;25670;44.782;10.356;2022-08-19T07:37:55;1.08;;;0.57;;
39982;SDS011;25670;44.782;10.356;2022-08-19T07:40:33;1.17;;;0.60;;
39982;SDS011;25670;44.782;10.356;2022-08-19T07:43:05;1.08;;;0.75;;
39982;SDS011;25670;44.782;10.356;2022-08-19T07:52:57;0.55;;;0.55;;
39982;SDS011;25670;44.782;10.356;2022-08-19T08:01:15;2.47;;;0.90;;
39982;SDS011;25670;44.782;10.356;2022-08-19T08:04:17;1.67;;;0.38;;
39982;SDS011;25670;44.782;10.356;2022-08-19T08:07:47;1.25;;;0.50;;
39982;SDS011;25670;44.782;10.356;2022-08-19T08:13:51;0.82;;;0.35;;
39982;SDS011;25670;44.782;10.356;2022-08-19T08:16:24;0.65;;;0.28;;
39982;SDS011;25670;44.782;10.356;2022-08-19T08:19:26;1.27;;;0.28;;
39982;SDS011;25670;44.782;10.356;2022-08-19T08:22:23;0.75;;;0.40;;
39982;SDS011;25670;44.782;10.356;2022-08-19T08:25:13;0.40;;;0.32;;
39982;SDS011;25670;44.782;10.356;2022-08-19T08:27:45;0.95;;;0.40;;
39982;SDS011;25670;44.782;10.356;2022-08-19T08:34:12;0.47;;;0.30;;
39982;SDS011;25670;44.782;10.356;2022-08-19T08:37:10;0.30;;;0.30;;
39982;SDS011;25670;44.782;10.356;2022-08-19T08:40:18;0.73;;;0.60;;
39982;SDS011;25670;44.782;10.356;2022-08-19T08:53:01;2.03;;;0.63;;
39982;SDS011;25670;44.782;10.356;2022-08-19T08:55:30;0.65;;;0.63;;
39982;SDS011;25670;44.782;10.356;2022-08-19T08:58:10;1.63;;;0.90;;
39982;SDS011;25670;44.782;10.356;2022-08-19T09:00:45;1.58;;;0.80;;
39982;SDS011;25670;44.782;10.356;2022-08-19T09:03:24;1.40;;;1.27;;
39982;SDS011;25670;44.782;10.356;2022-08-19T09:06:02;1.45;;;1.20;;
39982;SDS011;25670;44.782;10.356;2022-08-19T09:11:10;0.70;;;0.70;;
39982;SDS011;25670;44.782;10.356;2022-08-19T09:16:39;3.70;;;0.40;;
39982;SDS011;25670;44.782;10.356;2022-08-19T09:19:08;0.85;;;0.40;;
39982;SDS011;25670;44.782;10.356;2022-08-19T09:21:36;4.78;;;0.85;;
39982;SDS011;25670;44.782;10.356;2022-08-19T09:24:04;2.80;;;0.90;;
39982;SDS011;25670;44.782;10.356;2022-08-19T09:26:31;0.73;;;0.73;;
39982;SDS011;25670;44.782;10.356;2022-08-19T09:28:58;0.75;;;0.73;;
39982;SDS011;25670;44.782;10.356;2022-08-19T09:31:27;4.20;;;1.10;;
39982;SDS011;25670;44.782;10.356;2022-08-19T09:33:55;2.58;;;0.82;;
39982;SDS011;25670;44.782;10.356;2022-08-19T09:36:27;1.85;;;1.10;;
39982;SDS011;25670;44.782;10.356;2022-08-19T09:39:04;1.15;;;0.93;;
39982;SDS011;25670;44.782;10.356;2022-08-19T09:41:31;1.98;;;0.98;;
39982;SDS011;25670;44.782;10.356;2022-08-19T09:43:58;2.10;;;1.45;;
39982;SDS011;25670;44.782;10.356;2022-08-19T09:46:28;1.65;;;0.82;;
39982;SDS011;25670;44.782;10.356;2022-08-19T09:48:58;2.33;;;1.00;;
39982;SDS011;25670;44.782;10.356;2022-08-19T09:51:27;1.55;;;0.90;;
39982;SDS011;25670;44.782;10.356;2022-08-19T09:54:03;1.27;;;0.65;;
39982;SDS011;25670;44.782;10.356;2022-08-19T09:56:47;0.93;;;0.63;;
39982;SDS011;25670;44.782;10.356;2022-08-19T09:59:14;0.60;;;0.30;;
39982;SDS011;25670;44.782;10.356;2022-08-19T10:01:54;1.50;;;0.38;;
39982;SDS011;25670;44.782;10.356;2022-08-19T10:04:21;1.63;;;0.33;;
39982;SDS011;25670;44.782;10.356;2022-08-19T10:06:48;0.63;;;0.20;;
39982;SDS011;25670;44.782;10.356;2022-08-19T10:09:16;1.30;;;0.40;;
39982;SDS011;25670;44.782;10.356;2022-08-19T10:11:43;0.65;;;0.30;;
39982;SDS011;25670;44.782;10.356;2022-08-19T10:14:14;0.70;;;0.43;;
39982;SDS011;25670;44.782;10.356;2022-08-19T10:16:42;1.10;;;0.30;;
39982;SDS011;25670;44.782;10.356;2022-08-19T10:19:08;0.85;;;0.35;;
39982;SDS011;25670;44.782;10.356;2022-08-19T10:21:35;0.65;;;0.40;;
39982;SDS011;25670;44.782;10.356;2022-08-19T10:24:03;2.13;;;0.30;;
39982;SDS011;25670;44.782;10.356;2022-08-19T10:26:32;0.50;;;0.20;;
39982;SDS011;25670;44.782;10.356;2022-08-19T10:29:04;0.77;;;0.30;;
39982;SDS011;25670;44.782;10.356;2022-08-19T10:31:33;5.65;;;0.28;;
39982;SDS011;25670;44.782;10.356;2022-08-19T10:34:00;0.40;;;0.38;;
39982;SDS011;25670;44.782;10.356;2022-08-19T10:36:28;0.98;;;0.40;;
39982;SDS011;25670;44.782;10.356;2022-08-19T10:42:15;0.20;;;0.10;;
39982;SDS011;25670;44.782;10.356;2022-08-19T10:47:41;0.80;;;0.22;;
39982;SDS011;25670;44.782;10.356;2022-08-19T10:53:40;1.13;;;0.40;;
39982;SDS011;25670;44.782;10.356;2022-08-19T11:02:08;2.83;;;0.55;;
39982;SDS011;25670;44.782;10.356;2022-08-19T11:09:26;0.73;;;0.63;;
39982;SDS011;25670;44.782;10.356;2022-08-19T11:12:18;1.55;;;0.50;;
39982;SDS011;25670;44.782;10.356;2022-08-19T11:14:45;0.90;;;0.40;;
39982;SDS011;25670;44.782;10.356;2022-08-19T11:17:11;1.95;;;0.50;;
39982;SDS011;25670;44.782;10.356;2022-08-19T11:22:32;0.20;;;0.20;;
39982;SDS011;25670;44.782;10.356;2022-08-19T11:28:31;1.40;;;0.20;;
39982;SDS011;25670;44.782;10.356;2022-08-19T11:31:57;1.00;;;0.30;;
39982;SDS011;25670;44.782;10.356;2022-08-19T11:34:36;0.47;;;0.20;;
39982;SDS011;25670;44.782;10.356;2022-08-19T11:44:19;0.75;;;0.20;;
39982;SDS011;25670;44.782;10.356;2022-08-19T11:54:25;0.43;;;0.35;;
39982;SDS011;25670;44.782;10.356;2022-08-19T11:56:52;0.40;;;0.10;;
39982;SDS011;25670;44.782;10.356;2022-08-19T11:59:21;0.70;;;0.20;;
39982;SDS011;25670;44.782;10.356;2022-08-19T12:08:26;1.25;;;0.20;;
39982;SDS011;25670;44.782;10.356;2022-08-19T12:11:05;0.75;;;0.10;;
39982;SDS011;25670;44.782;10.356;2022-08-19T12:13:33;0.45;;;0.20;;
39982;SDS011;25670;44.782;10.356;2022-08-19T12:16:07;0.75;;;0.40;;
39982;SDS011;25670;44.782;10.356;2022-08-19T12:18:36;0.60;;;0.30;;
39982;SDS011;25670;44.782;10.356;2022-08-19T12:21:04;0.75;;;0.20;;
39982;SDS011;25670;44.782;10.356;2022-08-19T12:23:30;0.77;;;0.10;;
39982;SDS011;25670;44.782;10.356;2022-08-19T12:25:59;0.85;;;0.20;;
39982;SDS011;25670;44.782;10.356;2022-08-19T12:28:34;0.40;;;0.20;;
39982;SDS011;25670;44.782;10.356;2022-08-19T12:31:11;1.58;;;0.20;;
39982;SDS011;25670;44.782;10.356;2022-08-19T12:33:38;1.02;;;0.32;;
39982;SDS011;25670;44.782;10.356;2022-08-19T12:36:05;0.50;;;0.40;;
39982;SDS011;25670;44.782;10.356;2022-08-19T12:38:34;0.45;;;0.38;;
39982;SDS011;25670;44.782;10.356;2022-08-19T12:41:00;1.15;;;0.38;;
39982;SDS011;25670;44.782;10.356;2022-08-19T12:43:35;0.90;;;0.15;;
39982;SDS011;25670;44.782;10.356;2022-08-19T12:46:03;1.73;;;0.30;;
39982;SDS011;25670;44.782;10.356;2022-08-19T12:48:31;0.65;;;0.20;;
39982;SDS011;25670;44.782;10.356;2022-08-19T12:50:58;0.20;;;0.20;;
39982;SDS011;25670;44.782;10.356;2022-08-19T12:53:24;0.35;;;0.15;;
39982;SDS011;25670;44.782;10.356;2022-08-19T12:55:55;0.38;;;0.32;;
39982;SDS011;25670;44.782;10.356;2022-08-19T12:58:22;0.98;;;0.20;;
39982;SDS011;25670;44.782;10.356;2022-08-19T13:00:49;0.60;;;0.50;;
39982;SDS011;25670;44.782;10.356;2022-08-19T13:03:15;0.22;;;0.22;;
39982;SDS011;25670;44.782;10.356;2022-08-19T13:05:41;0.32;;;0.10;;
39982;SDS011;25670;44.782;10.356;2022-08-19T13:08:07;0.60;;;0.28;;
39982;SDS011;25670;44.782;10.356;2022-08-19T13:10:35;0.45;;;0.20;;
39982;SDS011;25670;44.782;10.356;2022-08-19T13:13:12;0.55;;;0.32;;
39982;SDS011;25670;44.782;10.356;2022-08-19T13:15:44;0.70;;;0.40;;
39982;SDS011;25670;44.782;10.356;2022-08-19T13:18:11;0.38;;;0.20;;
39982;SDS011;25670;44.782;10.356;2022-08-19T13:20:38;0.15;;;0.13;;
39982;SDS011;25670;44.782;10.356;2022-08-19T13:23:06;0.40;;;0.40;;
39982;SDS011;25670;44.782;10.356;2022-08-19T13:25:33;1.13;;;0.15;;
39982;SDS011;25670;44.782;10.356;2022-08-19T13:28:00;0.57;;;0.20;;
39982;SDS011;25670;44.782;10.356;2022-08-19T13:30:36;0.52;;;0.20;;
39982;SDS011;25670;44.782;10.356;2022-08-19T13:33:44;3.20;;;0.20;;
39982;SDS011;25670;44.782;10.356;2022-08-19T13:36:13;0.85;;;0.32;;
39982;SDS011;25670;44.782;10.356;2022-08-19T13:38:40;0.20;;;0.10;;
39982;SDS011;25670;44.782;10.356;2022-08-19T13:41:06;0.45;;;0.10;;
39982;SDS011;25670;44.782;10.356;2022-08-19T13:43:48;0.50;;;0.20;;
39982;SDS011;25670;44.782;10.356;2022-08-19T13:46:14;0.30;;;0.20;;
39982;SDS011;25670;44.782;10.356;2022-08-19T13:48:41;0.38;;;0.20;;
39982;SDS011;25670;44.782;10.356;2022-08-19T13:51:08;0.82;;;0.10;;
39982;SDS011;25670;44.782;10.356;2022-08-19T13:53:36;0.15;;;0.10;;
39982;SDS011;25670;44.782;10.356;2022-08-19T13:56:07;0.45;;;0.20;;
39982;SDS011;25670;44.782;10.356;2022-08-19T13:58:34;0.50;;;0.28;;
39982;SDS011;25670;44.782;10.356;2022-08-19T14:01:01;0.20;;;0.10;;
39982;SDS011;25670;44.782;10.356;2022-08-19T14:03:27;1.00;;;0.20;;
39982;SDS011;25670;44.782;10.356;2022-08-19T14:05:54;0.30;;;0.20;;
39982;SDS011;25670;44.782;10.356;2022-08-19T14:08:20;0.70;;;0.10;;
39982;SDS011;25670;44.782;10.356;2022-08-19T14:10:46;0.30;;;0.17;;
39982;SDS011;25670;44.782;10.356;2022-08-19T14:13:15;0.30;;;0.08;;
39982;SDS011;25670;44.782;10.356;2022-08-19T14:15:43;0.52;;;0.10;;
39982;SDS011;25670;44.782;10.356;2022-08-19T14:18:10;0.45;;;0.13;;
39982;SDS011;25670;44.782;10.356;2022-08-19T14:20:37;0.20;;;0.10;;
39982;SDS011;25670;44.782;10.356;2022-08-19T14:23:03;1.60;;;0.20;;
39982;SDS011;25670;44.782;10.356;2022-08-19T14:25:31;0.63;;;0.30;;
39982;SDS011;25670;44.782;10.356;2022-08-19T14:27:58;0.20;;;0.20;;
39982;SDS011;25670;44.782;10.356;2022-08-19T14:30:26;1.90;;;0.30;;
39982;SDS011;25670;44.782;10.356;2022-08-19T14:32:55;0.90;;;0.40;;
39982;SDS011;25670;44.782;10.356;2022-08-19T14:35:27;0.40;;;0.20;;
39982;SDS011;25670;44.782;10.356;2022-08-19T14:37:56;1.27;;;0.20;;
39982;SDS011;25670;44.782;10.356;2022-08-19T14:40:24;0.63;;;0.20;;
39982;SDS011;25670;44.782;10.356;2022-08-19T14:42:53;0.47;;;0.30;;
39982;SDS011;25670;44.782;10.356;2022-08-19T14:45:25;0.40;;;0.32;;
39982;SDS011;25670;44.782;10.356;2022-08-19T14:47:53;0.55;;;0.20;;
39982;SDS011;25670;44.782;10.356;2022-08-19T14:50:19;0.38;;;0.20;;
39982;SDS011;25670;44.782;10.356;2022-08-19T14:52:46;0.70;;;0.47;;
39982;SDS011;25670;44.782;10.356;2022-08-19T14:57:43;0.55;;;0.30;;
39982;SDS011;25670;44.782;10.356;2022-08-19T15:00:10;1.17;;;0.40;;
39982;SDS011;25670;44.782;10.356;2022-08-19T15:02:39;0.75;;;0.20;;
39982;SDS011;25670;44.782;10.356;2022-08-19T15:05:25;0.60;;;0.22;;
39982;SDS011;25670;44.782;10.356;2022-08-19T15:07:52;0.77;;;0.32;;
39982;SDS011;25670;44.782;10.356;2022-08-19T15:10:19;0.80;;;0.38;;
39982;SDS011;25670;44.782;10.356;2022-08-19T15:12:50;2.40;;;0.30;;
39982;SDS011;25670;44.782;10.356;2022-08-19T15:15:16;1.17;;;0.30;;
39982;SDS011;25670;44.782;10.356;2022-08-19T15:17:43;0.35;;;0.20;;
39982;SDS011;25670;44.782;10.356;2022-08-19T15:20:11;1.02;;;0.75;;
39982;SDS011;25670;44.782;10.356;2022-08-19T15:22:39;1.20;;;0.30;;
39982;SDS011;25670;44.782;10.356;2022-08-19T15:25:06;0.40;;;0.30;;
39982;SDS011;25670;44.782;10.356;2022-08-19T15:27:34;0.93;;;0.40;;
39982;SDS011;25670;44.782;10.356;2022-08-19T15:30:01;0.35;;;0.30;;
39982;SDS011;25670;44.782;10.356;2022-08-19T15:32:28;1.45;;;0.30;;
39982;SDS011;25670;44.782;10.356;2022-08-19T15:34:55;0.50;;;0.50;;
39982;SDS011;25670;44.782;10.356;2022-08-19T15:37:21;0.68;;;0.30;;
39982;SDS011;25670;44.782;10.356;2022-08-19T15:39:48;0.82;;;0.32;;
39982;SDS011;25670;44.782;10.356;2022-08-19T15:42:17;0.20;;;0.20;;
39982;SDS011;25670;44.782;10.356;2022-08-19T15:44:47;1.15;;;0.30;;
39982;SDS011;25670;44.782;10.356;2022-08-19T15:47:13;2.15;;;0.22;;
39982;SDS011;25670;44.782;10.356;2022-08-19T15:49:39;0.75;;;0.40;;
39982;SDS011;25670;44.782;10.356;2022-08-19T15:52:06;0.28;;;0.20;;
39982;SDS011;25670;44.782;10.356;2022-08-19T15:54:32;0.25;;;0.17;;
39982;SDS011;25670;44.782;10.356;2022-08-19T15:56:58;0.52;;;0.40;;
39982;SDS011;25670;44.782;10.356;2022-08-19T15:59:43;0.82;;;0.20;;
39982;SDS011;25670;44.782;10.356;2022-08-19T16:02:30;0.57;;;0.20;;
39982;SDS011;25670;44.782;10.356;2022-08-19T16:05:16;0.40;;;0.40;;
39982;SDS011;25670;44.782;10.356;2022-08-19T16:10:33;0.60;;;0.40;;
39982;SDS011;25670;44.782;10.356;2022-08-19T16:13:00;0.43;;;0.22;;
39982;SDS011;25670;44.782;10.356;2022-08-19T16:15:27;0.57;;;0.38;;
39982;SDS011;25670;44.782;10.356;2022-08-19T16:17:55;0.73;;;0.43;;
39982;SDS011;25670;44.782;10.356;2022-08-19T16:20:22;0.85;;;0.20;;
39982;SDS011;25670;44.782;10.356;2022-08-19T16:22:49;0.60;;;0.43;;
39982;SDS011;25670;44.782;10.356;2022-08-19T16:25:15;0.30;;;0.20;;
39982;SDS011;25670;44.782;10.356;2022-08-19T16:27:42;0.47;;;0.28;;
39982;SDS011;25670;44.782;10.356;2022-08-19T16:30:08;0.20;;;0.20;;
39982;SDS011;25670;44.782;10.356;2022-08-19T16:32:35;0.65;;;0.55;;
39982;SDS011;25670;44.782;10.356;2022-08-19T16:35:04;2.97;;;0.50;;
39982;SDS011;25670;44.782;10.356;2022-08-19T16:37:31;2.07;;;0.40;;
39982;SDS011;25670;44.782;10.356;2022-08-19T16:39:58;2.50;;;0.52;;
39982;SDS011;25670;44.782;10.356;2022-08-19T16:42:24;0.50;;;0.47;;
39982;SDS011;25670;44.782;10.356;2022-08-19T16:44:50;0.65;;;0.40;;
39982;SDS011;25670;44.782;10.356;2022-08-19T16:47:17;0.32;;;0.20;;
39982;SDS011;25670;44.782;10.356;2022-08-19T16:49:43;0.52;;;0.47;;
39982;SDS011;25670;44.782;10.356;2022-08-19T16:52:09;1.63;;;0.50;;